Terminal Aerodrome Forecast
Issued by NWS

Home | Current Version | Previous Version | Graphics & Text | Print | Product List | Glossary On
Versions: 1 2 3 4 5 6 7 8 9 10 11 12 13 14 15
408
FTUS42 KMHX 212321
TAFPGV
TAF
KPGV 212321Z 2200/2224 05004KT P6SM SKC
     FM220400 08005KT P6SM VCSH BKN080
     FM220800 04006KT P6SM -SHRA OVC040
     FM221400 01013KT P6SM BKN200
      AMD LTD TO CLD VIS AND WIND=

USA.gov is the U.S. government's official web portal to all federal, state and local government web resources and services.